sensor_id;sensor_type;location;lat;lon;timestamp;P1;durP1;ratioP1;P2;durP2;ratioP2
11048;SDS011;5577;42.706;23.160;2022-09-01T00:02:42;18.23;;;15.70;;
11048;SDS011;5577;42.706;23.160;2022-09-01T00:05:26;18.07;;;16.17;;
11048;SDS011;5577;42.706;23.160;2022-09-01T00:08:11;17.10;;;15.40;;
11048;SDS011;5577;42.706;23.160;2022-09-01T00:10:56;18.63;;;16.33;;
11048;SDS011;5577;42.706;23.160;2022-09-01T00:13:40;20.90;;;16.73;;
11048;SDS011;5577;42.706;23.160;2022-09-01T00:16:24;18.70;;;16.03;;
11048;SDS011;5577;42.706;23.160;2022-09-01T00:19:08;21.00;;;16.57;;
11048;SDS011;5577;42.706;23.160;2022-09-01T00:21:52;19.40;;;15.50;;
11048;SDS011;5577;42.706;23.160;2022-09-01T00:24:36;18.57;;;14.90;;
11048;SDS011;5577;42.706;23.160;2022-09-01T00:27:20;18.47;;;15.43;;
11048;SDS011;5577;42.706;23.160;2022-09-01T00:30:04;20.47;;;14.63;;
11048;SDS011;5577;42.706;23.160;2022-09-01T00:32:48;19.00;;;15.53;;
11048;SDS011;5577;42.706;23.160;2022-09-01T00:35:32;18.50;;;15.47;;
11048;SDS011;5577;42.706;23.160;2022-09-01T00:38:16;18.10;;;16.20;;
11048;SDS011;5577;42.706;23.160;2022-09-01T00:41:00;18.87;;;16.80;;
11048;SDS011;5577;42.706;23.160;2022-09-01T00:43:46;22.30;;;16.70;;
11048;SDS011;5577;42.706;23.160;2022-09-01T00:46:32;20.00;;;16.33;;
11048;SDS011;5577;42.706;23.160;2022-09-01T00:49:21;17.80;;;15.87;;
11048;SDS011;5577;42.706;23.160;2022-09-01T00:52:26;19.37;;;16.27;;
11048;SDS011;5577;42.706;23.160;2022-09-01T00:55:16;19.97;;;16.83;;
11048;SDS011;5577;42.706;23.160;2022-09-01T00:58:05;19.93;;;16.73;;
11048;SDS011;5577;42.706;23.160;2022-09-01T01:00:50;17.97;;;16.10;;
11048;SDS011;5577;42.706;23.160;2022-09-01T01:03:36;19.97;;;15.93;;
11048;SDS011;5577;42.706;23.160;2022-09-01T01:06:25;19.27;;;15.93;;
11048;SDS011;5577;42.706;23.160;2022-09-01T01:09:12;18.83;;;16.47;;
11048;SDS011;5577;42.706;23.160;2022-09-01T01:11:56;17.40;;;15.57;;
11048;SDS011;5577;42.706;23.160;2022-09-01T01:14:46;17.50;;;15.40;;
11048;SDS011;5577;42.706;23.160;2022-09-01T01:17:34;19.73;;;15.83;;
11048;SDS011;5577;42.706;23.160;2022-09-01T01:20:18;19.47;;;15.63;;
11048;SDS011;5577;42.706;23.160;2022-09-01T01:23:36;17.33;;;15.43;;
11048;SDS011;5577;42.706;23.160;2022-09-01T01:26:24;18.40;;;16.40;;
11048;SDS011;5577;42.706;23.160;2022-09-01T01:29:09;20.43;;;16.03;;
11048;SDS011;5577;42.706;23.160;2022-09-01T01:31:54;18.80;;;16.80;;
11048;SDS011;5577;42.706;23.160;2022-09-01T01:34:38;21.03;;;16.20;;
11048;SDS011;5577;42.706;23.160;2022-09-01T01:37:25;19.53;;;17.43;;
11048;SDS011;5577;42.706;23.160;2022-09-01T01:40:10;21.27;;;17.23;;
11048;SDS011;5577;42.706;23.160;2022-09-01T01:42:58;20.57;;;16.43;;
11048;SDS011;5577;42.706;23.160;2022-09-01T01:45:48;20.20;;;17.17;;
11048;SDS011;5577;42.706;23.160;2022-09-01T01:48:36;19.17;;;16.93;;
11048;SDS011;5577;42.706;23.160;2022-09-01T01:51:22;19.33;;;17.33;;
11048;SDS011;5577;42.706;23.160;2022-09-01T01:54:10;19.00;;;17.07;;
11048;SDS011;5577;42.706;23.160;2022-09-01T01:56:55;20.27;;;16.93;;
11048;SDS011;5577;42.706;23.160;2022-09-01T01:59:40;20.37;;;16.73;;
11048;SDS011;5577;42.706;23.160;2022-09-01T02:02:25;21.20;;;16.77;;
11048;SDS011;5577;42.706;23.160;2022-09-01T02:05:09;21.73;;;16.07;;
11048;SDS011;5577;42.706;23.160;2022-09-01T02:07:55;20.43;;;15.50;;
11048;SDS011;5577;42.706;23.160;2022-09-01T02:10:47;21.03;;;16.23;;
11048;SDS011;5577;42.706;23.160;2022-09-01T02:13:33;19.13;;;15.63;;
11048;SDS011;5577;42.706;23.160;2022-09-01T02:16:17;17.23;;;15.43;;
11048;SDS011;5577;42.706;23.160;2022-09-01T02:19:04;21.10;;;16.20;;
11048;SDS011;5577;42.706;23.160;2022-09-01T02:21:50;19.03;;;15.60;;
11048;SDS011;5577;42.706;23.160;2022-09-01T02:24:38;17.77;;;15.97;;
11048;SDS011;5577;42.706;23.160;2022-09-01T02:27:29;21.23;;;15.87;;
11048;SDS011;5577;42.706;23.160;2022-09-01T02:30:16;17.30;;;15.47;;
11048;SDS011;5577;42.706;23.160;2022-09-01T02:33:00;19.93;;;16.87;;
11048;SDS011;5577;42.706;23.160;2022-09-01T02:35:45;20.03;;;17.20;;
11048;SDS011;5577;42.706;23.160;2022-09-01T02:38:32;19.90;;;16.77;;
11048;SDS011;5577;42.706;23.160;2022-09-01T02:41:16;21.93;;;16.13;;
11048;SDS011;5577;42.706;23.160;2022-09-01T02:44:03;19.87;;;17.07;;
11048;SDS011;5577;42.706;23.160;2022-09-01T02:46:54;19.17;;;17.13;;
11048;SDS011;5577;42.706;23.160;2022-09-01T02:49:38;21.50;;;18.10;;
11048;SDS011;5577;42.706;23.160;2022-09-01T02:52:23;20.27;;;16.97;;
11048;SDS011;5577;42.706;23.160;2022-09-01T02:55:08;21.63;;;18.10;;
11048;SDS011;5577;42.706;23.160;2022-09-01T02:57:52;22.23;;;18.70;;
11048;SDS011;5577;42.706;23.160;2022-09-01T03:00:41;22.57;;;17.70;;
11048;SDS011;5577;42.706;23.160;2022-09-01T03:03:25;22.97;;;16.77;;
11048;SDS011;5577;42.706;23.160;2022-09-01T03:06:11;17.83;;;15.83;;
11048;SDS011;5577;42.706;23.160;2022-09-01T03:08:56;17.97;;;16.00;;
11048;SDS011;5577;42.706;23.160;2022-09-01T03:11:45;21.40;;;17.17;;
11048;SDS011;5577;42.706;23.160;2022-09-01T03:14:32;19.57;;;16.23;;
11048;SDS011;5577;42.706;23.160;2022-09-01T03:17:16;19.63;;;15.53;;
11048;SDS011;5577;42.706;23.160;2022-09-01T03:20:00;19.57;;;15.83;;
11048;SDS011;5577;42.706;23.160;2022-09-01T03:22:44;20.17;;;16.00;;
11048;SDS011;5577;42.706;23.160;2022-09-01T03:25:30;17.60;;;15.70;;
11048;SDS011;5577;42.706;23.160;2022-09-01T03:28:15;21.40;;;17.23;;
11048;SDS011;5577;42.706;23.160;2022-09-01T03:30:59;20.97;;;18.13;;
11048;SDS011;5577;42.706;23.160;2022-09-01T03:33:43;22.60;;;17.87;;
11048;SDS011;5577;42.706;23.160;2022-09-01T03:36:28;22.53;;;17.83;;
11048;SDS011;5577;42.706;23.160;2022-09-01T03:39:13;18.90;;;16.90;;
11048;SDS011;5577;42.706;23.160;2022-09-01T03:41:57;20.63;;;17.87;;
11048;SDS011;5577;42.706;23.160;2022-09-01T03:44:43;26.83;;;17.83;;
11048;SDS011;5577;42.706;23.160;2022-09-01T03:47:27;28.57;;;18.07;;
11048;SDS011;5577;42.706;23.160;2022-09-01T03:50:16;21.30;;;17.50;;
11048;SDS011;5577;42.706;23.160;2022-09-01T03:53:03;22.77;;;17.50;;
11048;SDS011;5577;42.706;23.160;2022-09-01T03:55:47;19.60;;;17.50;;
11048;SDS011;5577;42.706;23.160;2022-09-01T03:58:32;21.17;;;16.43;;
11048;SDS011;5577;42.706;23.160;2022-09-01T04:01:16;18.60;;;15.50;;
11048;SDS011;5577;42.706;23.160;2022-09-01T04:04:02;17.20;;;15.07;;
11048;SDS011;5577;42.706;23.160;2022-09-01T04:06:47;19.53;;;15.90;;
11048;SDS011;5577;42.706;23.160;2022-09-01T04:09:32;17.83;;;15.83;;
11048;SDS011;5577;42.706;23.160;2022-09-01T04:12:17;17.27;;;15.10;;
11048;SDS011;5577;42.706;23.160;2022-09-01T04:15:01;18.40;;;16.40;;
11048;SDS011;5577;42.706;23.160;2022-09-01T04:17:46;22.30;;;16.90;;
11048;SDS011;5577;42.706;23.160;2022-09-01T04:20:52;18.47;;;16.50;;
11048;SDS011;5577;42.706;23.160;2022-09-01T04:23:39;19.83;;;16.77;;
11048;SDS011;5577;42.706;23.160;2022-09-01T04:26:23;23.67;;;17.47;;
11048;SDS011;5577;42.706;23.160;2022-09-01T04:29:10;28.87;;;19.67;;
11048;SDS011;5577;42.706;23.160;2022-09-01T04:31:56;31.43;;;19.50;;
11048;SDS011;5577;42.706;23.160;2022-09-01T04:34:46;30.50;;;20.43;;
11048;SDS011;5577;42.706;23.160;2022-09-01T04:37:30;33.33;;;20.80;;
11048;SDS011;5577;42.706;23.160;2022-09-01T04:40:14;43.83;;;22.50;;
11048;SDS011;5577;42.706;23.160;2022-09-01T04:43:00;46.97;;;23.30;;
11048;SDS011;5577;42.706;23.160;2022-09-01T04:45:44;41.53;;;21.43;;
11048;SDS011;5577;42.706;23.160;2022-09-01T04:48:29;25.37;;;21.43;;
11048;SDS011;5577;42.706;23.160;2022-09-01T04:51:14;26.93;;;20.87;;
11048;SDS011;5577;42.706;23.160;2022-09-01T04:53:58;25.53;;;21.60;;
11048;SDS011;5577;42.706;23.160;2022-09-01T04:56:46;22.77;;;20.27;;
11048;SDS011;5577;42.706;23.160;2022-09-01T04:59:33;23.70;;;20.50;;
11048;SDS011;5577;42.706;23.160;2022-09-01T05:02:18;26.03;;;21.33;;
11048;SDS011;5577;42.706;23.160;2022-09-01T05:05:02;26.27;;;21.10;;
11048;SDS011;5577;42.706;23.160;2022-09-01T05:07:47;26.13;;;21.10;;
11048;SDS011;5577;42.706;23.160;2022-09-01T05:10:37;28.80;;;20.80;;
11048;SDS011;5577;42.706;23.160;2022-09-01T05:13:24;26.47;;;20.80;;
11048;SDS011;5577;42.706;23.160;2022-09-01T05:16:10;25.90;;;21.07;;
11048;SDS011;5577;42.706;23.160;2022-09-01T05:18:57;26.50;;;20.80;;
11048;SDS011;5577;42.706;23.160;2022-09-01T05:21:44;26.67;;;21.00;;
11048;SDS011;5577;42.706;23.160;2022-09-01T05:24:30;26.63;;;20.57;;
11048;SDS011;5577;42.706;23.160;2022-09-01T05:27:14;22.63;;;20.20;;
11048;SDS011;5577;42.706;23.160;2022-09-01T05:30:00;25.13;;;20.50;;
11048;SDS011;5577;42.706;23.160;2022-09-01T05:32:45;27.03;;;21.17;;
11048;SDS011;5577;42.706;23.160;2022-09-01T05:35:31;24.63;;;20.77;;
11048;SDS011;5577;42.706;23.160;2022-09-01T05:38:17;26.10;;;20.63;;
11048;SDS011;5577;42.706;23.160;2022-09-01T05:41:02;24.63;;;21.20;;
11048;SDS011;5577;42.706;23.160;2022-09-01T05:43:51;24.40;;;20.37;;
11048;SDS011;5577;42.706;23.160;2022-09-01T05:46:37;27.80;;;21.63;;
11048;SDS011;5577;42.706;23.160;2022-09-01T05:49:22;25.43;;;22.03;;
11048;SDS011;5577;42.706;23.160;2022-09-01T05:52:09;26.27;;;22.53;;
11048;SDS011;5577;42.706;23.160;2022-09-01T05:54:53;26.47;;;21.30;;
11048;SDS011;5577;42.706;23.160;2022-09-01T05:57:39;28.87;;;23.77;;
11048;SDS011;5577;42.706;23.160;2022-09-01T06:00:23;29.73;;;23.57;;
11048;SDS011;5577;42.706;23.160;2022-09-01T06:03:09;30.27;;;23.57;;
11048;SDS011;5577;42.706;23.160;2022-09-01T06:05:54;32.80;;;24.33;;
11048;SDS011;5577;42.706;23.160;2022-09-01T06:08:44;28.80;;;24.40;;
11048;SDS011;5577;42.706;23.160;2022-09-01T06:11:31;28.17;;;23.37;;
11048;SDS011;5577;42.706;23.160;2022-09-01T06:14:16;28.30;;;23.37;;
11048;SDS011;5577;42.706;23.160;2022-09-01T06:17:01;26.20;;;23.13;;
11048;SDS011;5577;42.706;23.160;2022-09-01T06:19:45;30.07;;;24.07;;
11048;SDS011;5577;42.706;23.160;2022-09-01T06:22:30;26.57;;;23.43;;
11048;SDS011;5577;42.706;23.160;2022-09-01T06:25:16;26.03;;;22.57;;
11048;SDS011;5577;42.706;23.160;2022-09-01T06:28:01;28.37;;;24.13;;
11048;SDS011;5577;42.706;23.160;2022-09-01T06:30:47;28.17;;;23.70;;
11048;SDS011;5577;42.706;23.160;2022-09-01T06:33:33;32.63;;;25.13;;
11048;SDS011;5577;42.706;23.160;2022-09-01T06:36:21;28.17;;;24.13;;
11048;SDS011;5577;42.706;23.160;2022-09-01T06:39:08;27.80;;;24.30;;
11048;SDS011;5577;42.706;23.160;2022-09-01T06:41:57;30.20;;;24.47;;
11048;SDS011;5577;42.706;23.160;2022-09-01T06:44:41;34.27;;;24.77;;
11048;SDS011;5577;42.706;23.160;2022-09-01T06:47:26;29.83;;;25.00;;
11048;SDS011;5577;42.706;23.160;2022-09-01T06:50:11;32.40;;;25.73;;
11048;SDS011;5577;42.706;23.160;2022-09-01T06:52:59;29.80;;;25.10;;
11048;SDS011;5577;42.706;23.160;2022-09-01T06:55:57;32.70;;;25.20;;
11048;SDS011;5577;42.706;23.160;2022-09-01T06:58:41;35.33;;;26.00;;
11048;SDS011;5577;42.706;23.160;2022-09-01T07:01:31;27.83;;;23.77;;
11048;SDS011;5577;42.706;23.160;2022-09-01T07:04:16;27.97;;;23.97;;
11048;SDS011;5577;42.706;23.160;2022-09-01T07:07:02;26.93;;;23.60;;
11048;SDS011;5577;42.706;23.160;2022-09-01T07:09:48;28.33;;;22.03;;
11048;SDS011;5577;42.706;23.160;2022-09-01T07:12:32;27.57;;;23.23;;
11048;SDS011;5577;42.706;23.160;2022-09-01T07:15:17;24.77;;;22.13;;
11048;SDS011;5577;42.706;23.160;2022-09-01T07:18:02;25.93;;;22.40;;
11048;SDS011;5577;42.706;23.160;2022-09-01T07:20:47;27.07;;;23.23;;
11048;SDS011;5577;42.706;23.160;2022-09-01T07:23:32;23.30;;;20.90;;
11048;SDS011;5577;42.706;23.160;2022-09-01T07:26:16;23.80;;;21.30;;
11048;SDS011;5577;42.706;23.160;2022-09-01T07:29:02;23.20;;;20.70;;
11048;SDS011;5577;42.706;23.160;2022-09-01T07:31:48;23.27;;;20.37;;
11048;SDS011;5577;42.706;23.160;2022-09-01T07:34:33;21.60;;;18.73;;
11048;SDS011;5577;42.706;23.160;2022-09-01T07:37:18;21.37;;;19.13;;
11048;SDS011;5577;42.706;23.160;2022-09-01T07:40:05;22.43;;;19.57;;
11048;SDS011;5577;42.706;23.160;2022-09-01T07:42:54;24.80;;;20.23;;
11048;SDS011;5577;42.706;23.160;2022-09-01T07:45:42;22.43;;;19.90;;
11048;SDS011;5577;42.706;23.160;2022-09-01T07:48:30;21.60;;;19.17;;
11048;SDS011;5577;42.706;23.160;2022-09-01T07:51:15;20.53;;;18.10;;
11048;SDS011;5577;42.706;23.160;2022-09-01T07:54:02;20.67;;;18.33;;
11048;SDS011;5577;42.706;23.160;2022-09-01T07:56:47;24.03;;;18.57;;
11048;SDS011;5577;42.706;23.160;2022-09-01T07:59:31;19.77;;;17.77;;
11048;SDS011;5577;42.706;23.160;2022-09-01T08:02:18;18.60;;;16.57;;
11048;SDS011;5577;42.706;23.160;2022-09-01T08:05:01;18.73;;;16.43;;
11048;SDS011;5577;42.706;23.160;2022-09-01T08:07:46;19.07;;;16.00;;
11048;SDS011;5577;42.706;23.160;2022-09-01T08:10:31;17.07;;;15.37;;
11048;SDS011;5577;42.706;23.160;2022-09-01T08:13:15;17.27;;;15.50;;
11048;SDS011;5577;42.706;23.160;2022-09-01T08:16:03;17.23;;;15.47;;
11048;SDS011;5577;42.706;23.160;2022-09-01T08:18:48;15.80;;;13.93;;
11048;SDS011;5577;42.706;23.160;2022-09-01T08:21:32;17.90;;;14.37;;
11048;SDS011;5577;42.706;23.160;2022-09-01T08:24:16;17.30;;;15.50;;
11048;SDS011;5577;42.706;23.160;2022-09-01T08:27:01;15.33;;;13.73;;
11048;SDS011;5577;42.706;23.160;2022-09-01T08:29:47;18.13;;;14.77;;
11048;SDS011;5577;42.706;23.160;2022-09-01T08:32:31;16.77;;;15.03;;
11048;SDS011;5577;42.706;23.160;2022-09-01T08:35:16;16.00;;;13.70;;
11048;SDS011;5577;42.706;23.160;2022-09-01T08:38:00;14.90;;;13.23;;
11048;SDS011;5577;42.706;23.160;2022-09-01T08:40:49;15.87;;;14.23;;
11048;SDS011;5577;42.706;23.160;2022-09-01T08:46:35;16.30;;;14.77;;
11048;SDS011;5577;42.706;23.160;2022-09-01T08:49:23;16.80;;;15.20;;
11048;SDS011;5577;42.706;23.160;2022-09-01T08:55:25;16.83;;;14.40;;
11048;SDS011;5577;42.706;23.160;2022-09-01T08:58:23;18.63;;;16.67;;
11048;SDS011;5577;42.706;23.160;2022-09-01T09:01:17;18.70;;;15.50;;
11048;SDS011;5577;42.706;23.160;2022-09-01T09:04:20;17.50;;;15.70;;
11048;SDS011;5577;42.706;23.160;2022-09-01T09:08:09;17.67;;;14.23;;
11048;SDS011;5577;42.706;23.160;2022-09-01T09:10:50;15.27;;;13.87;;
11048;SDS011;5577;42.706;23.160;2022-09-01T09:16:48;15.67;;;14.03;;
11048;SDS011;5577;42.706;23.160;2022-09-01T09:19:42;17.43;;;14.77;;
11048;SDS011;5577;42.706;23.160;2022-09-01T09:22:28;16.50;;;13.07;;
11048;SDS011;5577;42.706;23.160;2022-09-01T09:25:13;14.53;;;13.23;;
11048;SDS011;5577;42.706;23.160;2022-09-01T09:27:59;13.53;;;12.13;;
11048;SDS011;5577;42.706;23.160;2022-09-01T09:30:43;17.97;;;11.87;;
11048;SDS011;5577;42.706;23.160;2022-09-01T09:33:35;12.77;;;11.57;;
11048;SDS011;5577;42.706;23.160;2022-09-01T09:36:22;13.27;;;11.97;;
11048;SDS011;5577;42.706;23.160;2022-09-01T09:39:13;14.50;;;13.10;;
11048;SDS011;5577;42.706;23.160;2022-09-01T09:42:09;14.73;;;13.07;;
11048;SDS011;5577;42.706;23.160;2022-09-01T09:44:54;16.87;;;12.60;;
11048;SDS011;5577;42.706;23.160;2022-09-01T09:47:40;14.67;;;13.13;;
11048;SDS011;5577;42.706;23.160;2022-09-01T09:50:27;14.80;;;12.70;;
11048;SDS011;5577;42.706;23.160;2022-09-01T09:53:34;15.00;;;13.50;;
11048;SDS011;5577;42.706;23.160;2022-09-01T09:56:20;13.47;;;12.07;;
11048;SDS011;5577;42.706;23.160;2022-09-01T09:59:29;14.60;;;13.10;;
11048;SDS011;5577;42.706;23.160;2022-09-01T10:02:26;13.90;;;12.50;;
11048;SDS011;5577;42.706;23.160;2022-09-01T10:05:26;13.63;;;12.33;;
11048;SDS011;5577;42.706;23.160;2022-09-01T10:08:42;17.50;;;12.97;;
11048;SDS011;5577;42.706;23.160;2022-09-01T10:11:30;13.50;;;12.10;;
11048;SDS011;5577;42.706;23.160;2022-09-01T10:14:29;12.90;;;11.43;;
11048;SDS011;5577;42.706;23.160;2022-09-01T10:17:28;13.43;;;12.10;;
11048;SDS011;5577;42.706;23.160;2022-09-01T10:20:22;14.30;;;12.37;;
11048;SDS011;5577;42.706;23.160;2022-09-01T10:23:07;13.60;;;11.70;;
11048;SDS011;5577;42.706;23.160;2022-09-01T10:25:53;13.80;;;12.60;;
11048;SDS011;5577;42.706;23.160;2022-09-01T10:31:59;14.37;;;12.07;;
11048;SDS011;5577;42.706;23.160;2022-09-01T10:34:45;13.37;;;12.00;;
11048;SDS011;5577;42.706;23.160;2022-09-01T10:37:30;13.87;;;12.23;;
11048;SDS011;5577;42.706;23.160;2022-09-01T10:43:28;13.97;;;12.70;;
11048;SDS011;5577;42.706;23.160;2022-09-01T10:49:17;14.30;;;12.53;;
11048;SDS011;5577;42.706;23.160;2022-09-01T10:52:01;14.93;;;13.10;;
11048;SDS011;5577;42.706;23.160;2022-09-01T10:54:50;13.90;;;12.50;;
11048;SDS011;5577;42.706;23.160;2022-09-01T10:57:40;14.40;;;12.17;;
11048;SDS011;5577;42.706;23.160;2022-09-01T11:03:31;17.10;;;12.97;;
11048;SDS011;5577;42.706;23.160;2022-09-01T11:09:45;13.40;;;12.07;;
11048;SDS011;5577;42.706;23.160;2022-09-01T11:15:50;13.37;;;12.07;;
11048;SDS011;5577;42.706;23.160;2022-09-01T11:18:36;14.07;;;11.70;;
11048;SDS011;5577;42.706;23.160;2022-09-01T11:21:24;12.93;;;11.37;;
11048;SDS011;5577;42.706;23.160;2022-09-01T11:30:33;15.70;;;11.80;;
11048;SDS011;5577;42.706;23.160;2022-09-01T11:39:30;12.43;;;11.13;;
11048;SDS011;5577;42.706;23.160;2022-09-01T11:45:04;12.57;;;11.33;;
11048;SDS011;5577;42.706;23.160;2022-09-01T11:47:57;13.40;;;11.90;;
11048;SDS011;5577;42.706;23.160;2022-09-01T11:50:44;15.67;;;11.73;;
11048;SDS011;5577;42.706;23.160;2022-09-01T11:53:43;13.90;;;11.43;;
11048;SDS011;5577;42.706;23.160;2022-09-01T11:56:27;13.50;;;11.77;;
11048;SDS011;5577;42.706;23.160;2022-09-01T11:59:11;13.10;;;11.80;;
11048;SDS011;5577;42.706;23.160;2022-09-01T12:01:56;13.70;;;12.40;;
11048;SDS011;5577;42.706;23.160;2022-09-01T12:04:41;15.67;;;11.63;;
11048;SDS011;5577;42.706;23.160;2022-09-01T12:10:25;15.13;;;12.37;;
11048;SDS011;5577;42.706;23.160;2022-09-01T12:13:19;15.77;;;12.20;;
11048;SDS011;5577;42.706;23.160;2022-09-01T12:16:06;31.57;;;18.33;;
11048;SDS011;5577;42.706;23.160;2022-09-01T12:18:53;20.97;;;16.20;;
11048;SDS011;5577;42.706;23.160;2022-09-01T12:21:40;19.30;;;15.37;;
11048;SDS011;5577;42.706;23.160;2022-09-01T12:24:26;18.50;;;15.07;;
11048;SDS011;5577;42.706;23.160;2022-09-01T12:27:14;18.57;;;12.83;;
11048;SDS011;5577;42.706;23.160;2022-09-01T12:29:58;17.73;;;13.87;;
11048;SDS011;5577;42.706;23.160;2022-09-01T12:32:42;17.80;;;12.83;;
11048;SDS011;5577;42.706;23.160;2022-09-01T12:35:27;15.13;;;12.97;;
11048;SDS011;5577;42.706;23.160;2022-09-01T12:41:21;19.60;;;13.03;;
11048;SDS011;5577;42.706;23.160;2022-09-01T12:44:27;17.00;;;13.20;;
11048;SDS011;5577;42.706;23.160;2022-09-01T12:47:43;14.03;;;12.53;;
11048;SDS011;5577;42.706;23.160;2022-09-01T12:53:14;18.13;;;15.23;;
11048;SDS011;5577;42.706;23.160;2022-09-01T12:56:17;14.23;;;12.83;;
11048;SDS011;5577;42.706;23.160;2022-09-01T12:59:40;14.07;;;12.77;;
11048;SDS011;5577;42.706;23.160;2022-09-01T13:03:18;17.43;;;13.50;;
11048;SDS011;5577;42.706;23.160;2022-09-01T13:08:23;14.50;;;12.40;;
11048;SDS011;5577;42.706;23.160;2022-09-01T13:11:13;17.23;;;15.20;;
11048;SDS011;5577;42.706;23.160;2022-09-01T13:14:01;16.50;;;14.27;;
11048;SDS011;5577;42.706;23.160;2022-09-01T13:16:45;19.57;;;15.17;;
11048;SDS011;5577;42.706;23.160;2022-09-01T13:19:28;16.40;;;13.50;;
11048;SDS011;5577;42.706;23.160;2022-09-01T13:22:13;16.50;;;13.03;;
11048;SDS011;5577;42.706;23.160;2022-09-01T13:24:57;13.90;;;12.57;;
11048;SDS011;5577;42.706;23.160;2022-09-01T13:27:42;17.20;;;13.40;;
11048;SDS011;5577;42.706;23.160;2022-09-01T13:30:30;18.10;;;14.93;;
11048;SDS011;5577;42.706;23.160;2022-09-01T13:33:14;14.90;;;13.47;;
11048;SDS011;5577;42.706;23.160;2022-09-01T13:35:58;18.07;;;14.03;;
11048;SDS011;5577;42.706;23.160;2022-09-01T13:38:42;17.50;;;13.33;;
11048;SDS011;5577;42.706;23.160;2022-09-01T13:41:26;15.23;;;13.27;;
11048;SDS011;5577;42.706;23.160;2022-09-01T13:44:10;16.67;;;13.00;;
11048;SDS011;5577;42.706;23.160;2022-09-01T13:46:53;14.67;;;13.17;;
11048;SDS011;5577;42.706;23.160;2022-09-01T13:49:37;16.73;;;12.83;;
11048;SDS011;5577;42.706;23.160;2022-09-01T13:52:21;14.80;;;13.27;;
11048;SDS011;5577;42.706;23.160;2022-09-01T13:55:06;15.03;;;13.50;;
11048;SDS011;5577;42.706;23.160;2022-09-01T13:57:53;17.83;;;14.20;;
11048;SDS011;5577;42.706;23.160;2022-09-01T14:00:38;15.57;;;13.97;;
11048;SDS011;5577;42.706;23.160;2022-09-01T14:03:27;16.40;;;14.07;;
11048;SDS011;5577;42.706;23.160;2022-09-01T14:06:14;15.97;;;13.33;;
11048;SDS011;5577;42.706;23.160;2022-09-01T14:08:58;16.00;;;13.47;;
11048;SDS011;5577;42.706;23.160;2022-09-01T14:11:42;16.03;;;14.43;;
11048;SDS011;5577;42.706;23.160;2022-09-01T14:14:26;15.10;;;13.30;;
11048;SDS011;5577;42.706;23.160;2022-09-01T14:17:10;15.13;;;13.40;;
11048;SDS011;5577;42.706;23.160;2022-09-01T14:19:54;15.97;;;13.87;;
11048;SDS011;5577;42.706;23.160;2022-09-01T14:22:40;15.67;;;13.40;;
11048;SDS011;5577;42.706;23.160;2022-09-01T14:25:24;15.00;;;13.50;;
11048;SDS011;5577;42.706;23.160;2022-09-01T14:28:09;15.90;;;14.20;;
11048;SDS011;5577;42.706;23.160;2022-09-01T14:30:52;15.47;;;13.60;;
11048;SDS011;5577;42.706;23.160;2022-09-01T14:33:37;17.00;;;13.27;;
11048;SDS011;5577;42.706;23.160;2022-09-01T14:36:23;15.13;;;12.90;;
11048;SDS011;5577;42.706;23.160;2022-09-01T14:39:09;20.87;;;14.00;;
11048;SDS011;5577;42.706;23.160;2022-09-01T14:41:53;14.30;;;12.73;;
11048;SDS011;5577;42.706;23.160;2022-09-01T14:44:37;16.20;;;12.80;;
11048;SDS011;5577;42.706;23.160;2022-09-01T14:47:21;15.50;;;13.13;;
11048;SDS011;5577;42.706;23.160;2022-09-01T14:50:08;13.63;;;12.27;;
11048;SDS011;5577;42.706;23.160;2022-09-01T14:52:54;14.13;;;12.57;;
11048;SDS011;5577;42.706;23.160;2022-09-01T14:55:39;14.50;;;13.10;;
11048;SDS011;5577;42.706;23.160;2022-09-01T14:58:23;13.87;;;12.27;;
11048;SDS011;5577;42.706;23.160;2022-09-01T15:01:09;14.33;;;11.87;;
11048;SDS011;5577;42.706;23.160;2022-09-01T15:03:54;16.77;;;13.00;;
11048;SDS011;5577;42.706;23.160;2022-09-01T15:06:39;14.03;;;12.57;;
11048;SDS011;5577;42.706;23.160;2022-09-01T15:09:23;13.97;;;12.57;;
11048;SDS011;5577;42.706;23.160;2022-09-01T15:12:08;14.77;;;13.20;;
11048;SDS011;5577;42.706;23.160;2022-09-01T15:14:52;14.20;;;12.73;;
11048;SDS011;5577;42.706;23.160;2022-09-01T15:17:36;15.00;;;13.53;;
11048;SDS011;5577;42.706;23.160;2022-09-01T15:20:20;13.57;;;12.27;;
11048;SDS011;5577;42.706;23.160;2022-09-01T15:23:24;15.67;;;12.73;;
11048;SDS011;5577;42.706;23.160;2022-09-01T15:26:08;17.10;;;13.90;;
11048;SDS011;5577;42.706;23.160;2022-09-01T15:28:52;15.03;;;13.40;;
11048;SDS011;5577;42.706;23.160;2022-09-01T15:31:36;15.83;;;14.23;;
11048;SDS011;5577;42.706;23.160;2022-09-01T15:34:21;17.17;;;13.83;;
11048;SDS011;5577;42.706;23.160;2022-09-01T15:37:05;15.93;;;14.33;;
11048;SDS011;5577;42.706;23.160;2022-09-01T15:39:50;14.57;;;13.00;;
11048;SDS011;5577;42.706;23.160;2022-09-01T15:42:34;14.73;;;12.93;;
11048;SDS011;5577;42.706;23.160;2022-09-01T15:45:19;15.20;;;13.60;;
11048;SDS011;5577;42.706;23.160;2022-09-01T15:48:04;16.37;;;13.43;;
11048;SDS011;5577;42.706;23.160;2022-09-01T15:50:48;15.90;;;13.13;;
11048;SDS011;5577;42.706;23.160;2022-09-01T15:53:33;14.23;;;12.73;;
11048;SDS011;5577;42.706;23.160;2022-09-01T15:56:17;16.73;;;12.90;;
11048;SDS011;5577;42.706;23.160;2022-09-01T15:59:01;20.33;;;12.23;;
11048;SDS011;5577;42.706;23.160;2022-09-01T16:01:48;16.77;;;11.47;;
11048;SDS011;5577;42.706;23.160;2022-09-01T16:04:33;21.37;;;12.27;;
11048;SDS011;5577;42.706;23.160;2022-09-01T16:07:19;22.47;;;12.03;;
11048;SDS011;5577;42.706;23.160;2022-09-01T16:10:03;26.47;;;14.47;;
11048;SDS011;5577;42.706;23.160;2022-09-01T16:12:48;15.20;;;11.47;;
11048;SDS011;5577;42.706;23.160;2022-09-01T16:15:35;21.10;;;13.07;;
11048;SDS011;5577;42.706;23.160;2022-09-01T16:18:43;15.50;;;11.87;;
11048;SDS011;5577;42.706;23.160;2022-09-01T16:21:51;20.43;;;12.57;;
11048;SDS011;5577;42.706;23.160;2022-09-01T16:24:48;15.63;;;11.87;;
11048;SDS011;5577;42.706;23.160;2022-09-01T16:27:38;16.30;;;11.53;;
11048;SDS011;5577;42.706;23.160;2022-09-01T16:30:25;16.73;;;11.60;;
11048;SDS011;5577;42.706;23.160;2022-09-01T16:33:11;18.33;;;11.13;;
11048;SDS011;5577;42.706;23.160;2022-09-01T16:36:07;12.30;;;11.07;;
11048;SDS011;5577;42.706;23.160;2022-09-01T16:42:43;13.80;;;12.27;;
11048;SDS011;5577;42.706;23.160;2022-09-01T16:46:08;17.00;;;11.90;;
11048;SDS011;5577;42.706;23.160;2022-09-01T16:52:01;13.47;;;11.27;;
11048;SDS011;5577;42.706;23.160;2022-09-01T17:00:50;31.00;;;14.20;;
11048;SDS011;5577;42.706;23.160;2022-09-01T17:04:03;14.37;;;11.70;;
11048;SDS011;5577;42.706;23.160;2022-09-01T17:27:04;14.17;;;11.20;;
11048;SDS011;5577;42.706;23.160;2022-09-01T17:29:54;12.87;;;11.40;;
11048;SDS011;5577;42.706;23.160;2022-09-01T17:36:23;15.57;;;11.80;;
11048;SDS011;5577;42.706;23.160;2022-09-01T17:39:22;15.93;;;12.33;;
11048;SDS011;5577;42.706;23.160;2022-09-01T17:42:22;12.30;;;11.03;;
11048;SDS011;5577;42.706;23.160;2022-09-01T17:45:25;13.93;;;10.40;;
11048;SDS011;5577;42.706;23.160;2022-09-01T17:48:19;13.03;;;10.20;;
11048;SDS011;5577;42.706;23.160;2022-09-01T18:00:22;13.30;;;11.00;;
11048;SDS011;5577;42.706;23.160;2022-09-01T18:06:08;17.00;;;11.80;;